• Join FlightAware (Why Join?)
  • Login
  • US Flag 
09:35PM EDT


 

Airport Tracker/Info


-or-


 

Live Flight TrackerFlight Track Log ✈ ASQ5745 ✈ 26-May-2013 ✈ KIAD - KALB

Flight Track Log - Related Links

Times and Time Zones

All times are in EDT time to prevent confusion due to time zone crossing. See the ASQ5745 flight status page for this flight to view local times or setup timezone preferences in your user account.

Time Position Orientation Groundspeed Altitude Reporting Facility
EDT Latitude Longitude Course Direction KTS MPH feet Rate Location/Type
08:31AM 38.9833 -77.4667 North 201 231 1,900  Level Potomac TRACON
08:32AM 39.0500 -77.4500 11° North 237 273 5,300 3,240 Climbing Potomac TRACON
08:33AM 39.1167 -77.4500 360° North 254 292 8,400 1,920 Climbing Potomac TRACON
08:34AM 39.2823 -77.4500 North  Level FlightAware Approximate
08:35AM 39.3695 -77.4500 North  Level FlightAware Approximate
08:35AM 39.2869 -77.4444 North 300 345 11,400  Level Washington Center
08:36AM 39.4567 -77.4500 North  Level FlightAware Approximate
08:36AM 39.3828 -77.4469 359° North 325 374 13,400  Level Washington Center
08:38AM 39.5844 -77.4494 359° North 344 396 17,500 1,860 Climbing New York Center
08:39AM 39.6781 -77.4528 358° North 344 396 18,900 1,200 Climbing New York Center
08:40AM 39.7658 -77.4531 360° North 349 402 20,000 1,020 Climbing New York Center
08:41AM 39.8658 -77.4517 North 349 402 21,000 600 Climbing New York Center
08:42AM 39.9744 -77.4486 North 362 417 21,300 900 Climbing New York Center
08:43AM 40.0808 -77.4478 360° North 375 432 22,800 1,320 Climbing New York Center
08:44AM 40.1925 -77.4286 North 380 437 24,000 840 Climbing New York Center
08:45AM 40.2875 -77.3344 37° Northeast 376 433 24,500 480 Climbing New York Center
08:46AM 40.3819 -77.2453 36° Northeast 397 457 25,000 480 Climbing New York Center
08:47AM 40.4786 -77.1533 36° Northeast 417 480 25,500 480 Climbing New York Center
08:48AM 40.5753 -77.0639 35° Northeast 427 491 26,000 480 Climbing New York Center
08:49AM 40.6742 -76.9689 36° Northeast 427 491 26,500 480 Climbing New York Center
08:50AM 40.7744 -76.8792 34° Northeast 427 491 27,000 240 Climbing New York Center
08:51AM 40.8711 -76.7864 36° Northeast 427 491 27,000  Level New York Center
08:52AM 40.9717 -76.6908 36° Northeast 432 497 27,000  Level New York Center
08:53AM 41.0678 -76.6028 35° Northeast 432 497 27,000  Level New York Center
08:54AM 41.1661 -76.5094 36° Northeast 425 489 27,000 -540 Level New York Center
08:55AM 41.2644 -76.4156 36° Northeast 425 489 26,000 -1,320 Descending New York Center
08:56AM 41.3647 -76.3189 36° Northeast 430 495 24,400 -1,020 Descending New York Center
08:57AM 41.4561 -76.2322 35° Northeast 447 514 24,000 -180 Descending New York Center
08:59AM 41.6939 -76.0047 36° Northeast 439 505 24,000  Level Boston Center
09:00AM 41.7908 -75.9069 37° Northeast 439 505 24,000  Level Boston Center
09:01AM 41.8894 -75.8119 36° Northeast 439 505 24,000  Level Boston Center
09:02AM 41.9861 -75.7167 36° Northeast 439 505 24,000  Level Boston Center
09:03AM 42.0869 -75.6211 35° Northeast 439 505 24,000 -120 Level Boston Center
09:04AM 42.1814 -75.5194 39° Northeast 439 505 23,800 -960 Descending Boston Center
09:05AM 42.2378 -75.3594 65° Northeast 441 507 22,100 -1,800 Descending Boston Center
09:06AM 42.2897 -75.2019 66° East 441 507 20,300 -1,980 Descending Boston Center
09:07AM 42.3347 -75.0578 67° East 441 507 18,200 -1,980 Descending Boston Center
09:08AM 42.3836 -74.9194 64° Northeast 431 496 16,400 -1,800 Descending Boston Center
09:09AM 42.4283 -74.7775 67° East 415 478 14,600 -1,920 Descending Boston Center
09:10AM 42.4461 -74.7219 67° East 389 448 13,600 -2,040 Descending Boston Center
09:10AM 42.4708 -74.6442 67° East 393 452 12,600 -1,860 Descending Boston Center
09:11AM 42.4950 -74.5717 66° East 369 425 11,600 -1,440 Descending Boston Center
09:11AM 42.5125 -74.5217 65° Northeast 368 423 11,200 -600 Descending Boston Center
09:12AM 42.5303 -74.4631 68° East 308 354 11,000 -420 Descending Boston Center
09:12AM 42.5439 -74.4128 70° East 318 366 10,800 -1,140 Descending Boston Center
09:13AM 42.5450 -74.3450 89° East 315 362 9,900 -1,440 Descending Boston Center
09:13AM 42.5417 -74.2944 95° East 302 348 9,400 -2,220 Descending Boston Center
09:14AM 42.5364 -74.2322 97° East 297 342 7,700 -2,340 Descending Boston Center
09:14AM 42.5350 -74.1842 92° East 302 348 7,100 -1,920 Descending Boston Center
09:15AM 42.5339 -74.1250 91° East 289 333 5,800 -1,920 Descending Boston Center
09:15AM 42.5325 -74.0769 92° East 289 333 5,200 -1,800 Descending Boston Center
09:16AM 42.5333 -74.0122 89° East 278 320 4,000 -1,380 Descending Boston Center
09:17AM 42.5403 -73.9617 79° East 268 308 3,600 -840 Descending Boston Center
09:17AM 42.5469 -73.9281 75° East 213 245 3,200 -840 Descending Boston Center
09:18AM 42.5600 -73.8975 60° Northeast 219 252 2,800 -600 Descending Boston Center
09:18AM 42.5811 -73.8697 44° Northeast 192 221 2,600 -420 Descending Boston Center
09:19AM 42.5919 -73.8306 69° East 198 228 2,400 -420 Descending Boston Center